sensor_id;sensor_type;location;lat;lon;timestamp;P1;durP1;ratioP1;P2;durP2;ratioP2
6667;SDS011;3370;47.712;9.082;2023-08-06T00:00:26;3.40;;;3.20;;
6667;SDS011;3370;47.712;9.082;2023-08-06T00:02:53;3.77;;;3.47;;
6667;SDS011;3370;47.712;9.082;2023-08-06T00:05:18;3.40;;;3.20;;
6667;SDS011;3370;47.712;9.082;2023-08-06T00:07:49;3.60;;;3.37;;
6667;SDS011;3370;47.712;9.082;2023-08-06T00:10:16;4.40;;;3.20;;
6667;SDS011;3370;47.712;9.082;2023-08-06T00:12:43;3.73;;;3.43;;
6667;SDS011;3370;47.712;9.082;2023-08-06T00:15:09;4.50;;;4.10;;
6667;SDS011;3370;47.712;9.082;2023-08-06T00:17:36;6.83;;;3.90;;
6667;SDS011;3370;47.712;9.082;2023-08-06T00:20:02;4.37;;;4.00;;
6667;SDS011;3370;47.712;9.082;2023-08-06T00:22:37;4.00;;;3.70;;
6667;SDS011;3370;47.712;9.082;2023-08-06T00:25:03;6.13;;;4.33;;
6667;SDS011;3370;47.712;9.082;2023-08-06T00:27:30;5.30;;;3.90;;
6667;SDS011;3370;47.712;9.082;2023-08-06T00:29:57;3.53;;;3.33;;
6667;SDS011;3370;47.712;9.082;2023-08-06T00:32:23;5.30;;;4.13;;
6667;SDS011;3370;47.712;9.082;2023-08-06T00:34:49;4.20;;;3.63;;
6667;SDS011;3370;47.712;9.082;2023-08-06T00:37:15;4.13;;;3.73;;
6667;SDS011;3370;47.712;9.082;2023-08-06T00:39:42;4.33;;;3.20;;
6667;SDS011;3370;47.712;9.082;2023-08-06T00:42:09;3.87;;;3.27;;
6667;SDS011;3370;47.712;9.082;2023-08-06T00:44:36;3.43;;;3.13;;
6667;SDS011;3370;47.712;9.082;2023-08-06T00:47:03;6.60;;;3.97;;
6667;SDS011;3370;47.712;9.082;2023-08-06T00:49:29;4.00;;;3.70;;
6667;SDS011;3370;47.712;9.082;2023-08-06T00:51:55;5.37;;;4.30;;
6667;SDS011;3370;47.712;9.082;2023-08-06T00:54:22;4.10;;;3.80;;
6667;SDS011;3370;47.712;9.082;2023-08-06T00:56:49;4.50;;;4.10;;
6667;SDS011;3370;47.712;9.082;2023-08-06T00:59:15;4.13;;;3.57;;
6667;SDS011;3370;47.712;9.082;2023-08-06T01:01:41;3.50;;;3.23;;
6667;SDS011;3370;47.712;9.082;2023-08-06T01:04:08;12.60;;;3.70;;
6667;SDS011;3370;47.712;9.082;2023-08-06T01:07:25;4.03;;;3.73;;
6667;SDS011;3370;47.712;9.082;2023-08-06T01:10:01;4.60;;;4.20;;
6667;SDS011;3370;47.712;9.082;2023-08-06T01:15:48;4.60;;;3.70;;
6667;SDS011;3370;47.712;9.082;2023-08-06T01:18:19;4.50;;;4.10;;
6667;SDS011;3370;47.712;9.082;2023-08-06T01:20:45;4.57;;;4.17;;
6667;SDS011;3370;47.712;9.082;2023-08-06T01:23:11;4.67;;;4.03;;
6667;SDS011;3370;47.712;9.082;2023-08-06T01:25:42;4.33;;;3.60;;
6667;SDS011;3370;47.712;9.082;2023-08-06T01:31:03;3.07;;;2.87;;
6667;SDS011;3370;47.712;9.082;2023-08-06T01:33:32;4.73;;;3.87;;
6667;SDS011;3370;47.712;9.082;2023-08-06T01:36:03;3.40;;;3.10;;
6667;SDS011;3370;47.712;9.082;2023-08-06T01:38:30;3.63;;;3.03;;
6667;SDS011;3370;47.712;9.082;2023-08-06T01:40:56;3.67;;;3.37;;
6667;SDS011;3370;47.712;9.082;2023-08-06T01:43:22;4.07;;;3.63;;
6667;SDS011;3370;47.712;9.082;2023-08-06T01:45:48;2.93;;;2.73;;
6667;SDS011;3370;47.712;9.082;2023-08-06T01:48:13;3.50;;;3.30;;
6667;SDS011;3370;47.712;9.082;2023-08-06T01:50:39;4.70;;;3.10;;
6667;SDS011;3370;47.712;9.082;2023-08-06T01:53:05;3.30;;;3.10;;
6667;SDS011;3370;47.712;9.082;2023-08-06T01:55:31;3.43;;;3.13;;
6667;SDS011;3370;47.712;9.082;2023-08-06T01:57:56;3.80;;;3.40;;
6667;SDS011;3370;47.712;9.082;2023-08-06T02:00:22;4.43;;;3.00;;
6667;SDS011;3370;47.712;9.082;2023-08-06T02:02:48;4.27;;;2.80;;
6667;SDS011;3370;47.712;9.082;2023-08-06T02:05:14;3.40;;;3.10;;
6667;SDS011;3370;47.712;9.082;2023-08-06T02:07:39;3.83;;;3.33;;
6667;SDS011;3370;47.712;9.082;2023-08-06T02:10:06;3.53;;;3.23;;
6667;SDS011;3370;47.712;9.082;2023-08-06T02:12:32;3.70;;;3.30;;
6667;SDS011;3370;47.712;9.082;2023-08-06T02:14:58;3.57;;;3.37;;
6667;SDS011;3370;47.712;9.082;2023-08-06T02:17:23;4.17;;;3.77;;
6667;SDS011;3370;47.712;9.082;2023-08-06T02:19:49;3.37;;;3.17;;
6667;SDS011;3370;47.712;9.082;2023-08-06T02:22:15;4.07;;;3.20;;
6667;SDS011;3370;47.712;9.082;2023-08-06T02:24:40;4.87;;;3.50;;
6667;SDS011;3370;47.712;9.082;2023-08-06T02:27:06;3.40;;;3.10;;
6667;SDS011;3370;47.712;9.082;2023-08-06T02:29:32;4.20;;;2.77;;
6667;SDS011;3370;47.712;9.082;2023-08-06T02:31:58;2.73;;;2.63;;
6667;SDS011;3370;47.712;9.082;2023-08-06T02:34:26;3.20;;;2.47;;
6667;SDS011;3370;47.712;9.082;2023-08-06T02:36:52;6.23;;;3.07;;
6667;SDS011;3370;47.712;9.082;2023-08-06T02:39:18;3.53;;;3.03;;
6667;SDS011;3370;47.712;9.082;2023-08-06T02:41:44;3.40;;;2.70;;
6667;SDS011;3370;47.712;9.082;2023-08-06T02:44:10;3.03;;;2.83;;
6667;SDS011;3370;47.712;9.082;2023-08-06T02:46:36;3.57;;;3.27;;
6667;SDS011;3370;47.712;9.082;2023-08-06T02:49:01;2.93;;;2.63;;
6667;SDS011;3370;47.712;9.082;2023-08-06T02:51:27;3.03;;;2.83;;
6667;SDS011;3370;47.712;9.082;2023-08-06T02:53:53;3.60;;;2.97;;
6667;SDS011;3370;47.712;9.082;2023-08-06T02:56:18;2.73;;;2.47;;
6667;SDS011;3370;47.712;9.082;2023-08-06T02:58:44;3.10;;;2.90;;
6667;SDS011;3370;47.712;9.082;2023-08-06T03:01:10;2.67;;;2.57;;
6667;SDS011;3370;47.712;9.082;2023-08-06T03:03:36;2.37;;;2.20;;
6667;SDS011;3370;47.712;9.082;2023-08-06T03:06:01;3.80;;;2.47;;
6667;SDS011;3370;47.712;9.082;2023-08-06T03:08:28;3.73;;;2.63;;
6667;SDS011;3370;47.712;9.082;2023-08-06T03:10:54;2.23;;;2.13;;
6667;SDS011;3370;47.712;9.082;2023-08-06T03:13:19;3.03;;;2.83;;
6667;SDS011;3370;47.712;9.082;2023-08-06T03:18:37;2.17;;;2.07;;
6667;SDS011;3370;47.712;9.082;2023-08-06T03:21:03;2.23;;;2.00;;
6667;SDS011;3370;47.712;9.082;2023-08-06T03:23:29;1.77;;;1.67;;
6667;SDS011;3370;47.712;9.082;2023-08-06T03:25:55;2.07;;;1.97;;
6667;SDS011;3370;47.712;9.082;2023-08-06T03:28:20;2.70;;;2.20;;
6667;SDS011;3370;47.712;9.082;2023-08-06T03:30:47;3.07;;;2.13;;
6667;SDS011;3370;47.712;9.082;2023-08-06T03:33:13;2.60;;;2.40;;
6667;SDS011;3370;47.712;9.082;2023-08-06T03:35:39;5.17;;;2.30;;
6667;SDS011;3370;47.712;9.082;2023-08-06T03:38:05;2.10;;;1.97;;
6667;SDS011;3370;47.712;9.082;2023-08-06T03:40:31;1.80;;;1.70;;
6667;SDS011;3370;47.712;9.082;2023-08-06T03:42:56;2.40;;;2.20;;
6667;SDS011;3370;47.712;9.082;2023-08-06T03:45:22;2.33;;;2.13;;
6667;SDS011;3370;47.712;9.082;2023-08-06T03:47:48;1.73;;;1.63;;
6667;SDS011;3370;47.712;9.082;2023-08-06T03:50:14;1.97;;;1.87;;
6667;SDS011;3370;47.712;9.082;2023-08-06T03:52:39;2.80;;;1.90;;
6667;SDS011;3370;47.712;9.082;2023-08-06T03:55:05;2.90;;;2.03;;
6667;SDS011;3370;47.712;9.082;2023-08-06T03:57:32;3.57;;;1.90;;
6667;SDS011;3370;47.712;9.082;2023-08-06T03:59:57;2.73;;;2.53;;
6667;SDS011;3370;47.712;9.082;2023-08-06T04:02:23;2.17;;;1.97;;
6667;SDS011;3370;47.712;9.082;2023-08-06T04:04:49;2.60;;;2.40;;
6667;SDS011;3370;47.712;9.082;2023-08-06T04:07:14;1.87;;;1.73;;
6667;SDS011;3370;47.712;9.082;2023-08-06T04:09:53;1.80;;;1.70;;
6667;SDS011;3370;47.712;9.082;2023-08-06T04:12:24;2.13;;;1.93;;
6667;SDS011;3370;47.712;9.082;2023-08-06T04:14:50;3.07;;;1.47;;
6667;SDS011;3370;47.712;9.082;2023-08-06T04:17:20;1.83;;;1.73;;
6667;SDS011;3370;47.712;9.082;2023-08-06T04:19:50;1.67;;;1.53;;
6667;SDS011;3370;47.712;9.082;2023-08-06T04:22:18;1.80;;;1.67;;
6667;SDS011;3370;47.712;9.082;2023-08-06T04:24:44;2.13;;;1.63;;
6667;SDS011;3370;47.712;9.082;2023-08-06T04:27:11;2.67;;;2.20;;
6667;SDS011;3370;47.712;9.082;2023-08-06T04:29:38;3.43;;;2.07;;
6667;SDS011;3370;47.712;9.082;2023-08-06T04:32:06;2.60;;;1.97;;
6667;SDS011;3370;47.712;9.082;2023-08-06T04:34:33;2.03;;;1.80;;
6667;SDS011;3370;47.712;9.082;2023-08-06T04:37:01;1.80;;;1.70;;
6667;SDS011;3370;47.712;9.082;2023-08-06T04:39:28;5.60;;;1.93;;
6667;SDS011;3370;47.712;9.082;2023-08-06T04:41:55;2.03;;;1.93;;
6667;SDS011;3370;47.712;9.082;2023-08-06T04:44:22;2.07;;;1.50;;
6667;SDS011;3370;47.712;9.082;2023-08-06T04:46:48;1.93;;;1.83;;
6667;SDS011;3370;47.712;9.082;2023-08-06T04:49:14;5.80;;;1.80;;
6667;SDS011;3370;47.712;9.082;2023-08-06T04:51:40;1.37;;;1.20;;
6667;SDS011;3370;47.712;9.082;2023-08-06T04:54:06;1.77;;;1.40;;
6667;SDS011;3370;47.712;9.082;2023-08-06T04:56:32;2.40;;;1.53;;
6667;SDS011;3370;47.712;9.082;2023-08-06T04:58:57;1.87;;;1.40;;
6667;SDS011;3370;47.712;9.082;2023-08-06T05:01:24;1.47;;;1.00;;
6667;SDS011;3370;47.712;9.082;2023-08-06T05:03:50;1.80;;;0.90;;
6667;SDS011;3370;47.712;9.082;2023-08-06T05:06:16;1.30;;;1.20;;
6667;SDS011;3370;47.712;9.082;2023-08-06T05:08:42;1.73;;;1.03;;
6667;SDS011;3370;47.712;9.082;2023-08-06T05:11:08;4.00;;;1.60;;
6667;SDS011;3370;47.712;9.082;2023-08-06T05:13:34;2.70;;;1.33;;
6667;SDS011;3370;47.712;9.082;2023-08-06T05:16:00;2.90;;;1.10;;
6667;SDS011;3370;47.712;9.082;2023-08-06T05:18:26;2.53;;;1.17;;
6667;SDS011;3370;47.712;9.082;2023-08-06T05:20:52;2.73;;;1.43;;
6667;SDS011;3370;47.712;9.082;2023-08-06T05:23:17;1.43;;;1.20;;
6667;SDS011;3370;47.712;9.082;2023-08-06T05:25:43;5.03;;;1.17;;
6667;SDS011;3370;47.712;9.082;2023-08-06T05:28:09;5.50;;;1.70;;
6667;SDS011;3370;47.712;9.082;2023-08-06T05:30:38;1.53;;;1.00;;
6667;SDS011;3370;47.712;9.082;2023-08-06T05:33:05;2.97;;;1.33;;
6667;SDS011;3370;47.712;9.082;2023-08-06T05:35:31;2.50;;;1.23;;
6667;SDS011;3370;47.712;9.082;2023-08-06T05:37:57;3.13;;;1.00;;
6667;SDS011;3370;47.712;9.082;2023-08-06T05:40:22;2.53;;;0.93;;
6667;SDS011;3370;47.712;9.082;2023-08-06T05:42:50;1.13;;;0.80;;
6667;SDS011;3370;47.712;9.082;2023-08-06T05:45:18;3.53;;;0.90;;
6667;SDS011;3370;47.712;9.082;2023-08-06T05:47:44;1.43;;;0.90;;
6667;SDS011;3370;47.712;9.082;2023-08-06T05:50:10;2.83;;;0.77;;
6667;SDS011;3370;47.712;9.082;2023-08-06T05:52:36;0.90;;;0.80;;
6667;SDS011;3370;47.712;9.082;2023-08-06T05:55:02;0.77;;;0.70;;
6667;SDS011;3370;47.712;9.082;2023-08-06T05:57:28;1.07;;;0.97;;
6667;SDS011;3370;47.712;9.082;2023-08-06T05:59:54;1.33;;;0.90;;
6667;SDS011;3370;47.712;9.082;2023-08-06T06:02:20;1.13;;;1.00;;
6667;SDS011;3370;47.712;9.082;2023-08-06T06:04:45;1.03;;;1.03;;
6667;SDS011;3370;47.712;9.082;2023-08-06T06:07:11;2.03;;;1.00;;
6667;SDS011;3370;47.712;9.082;2023-08-06T06:09:37;0.90;;;0.90;;
6667;SDS011;3370;47.712;9.082;2023-08-06T06:12:04;3.80;;;1.20;;
6667;SDS011;3370;47.712;9.082;2023-08-06T06:14:31;0.90;;;0.90;;
6667;SDS011;3370;47.712;9.082;2023-08-06T06:16:57;0.70;;;0.70;;
6667;SDS011;3370;47.712;9.082;2023-08-06T06:19:25;0.93;;;0.80;;
6667;SDS011;3370;47.712;9.082;2023-08-06T06:21:50;1.33;;;1.23;;
6667;SDS011;3370;47.712;9.082;2023-08-06T06:24:16;2.83;;;1.37;;
6667;SDS011;3370;47.712;9.082;2023-08-06T06:26:42;3.73;;;1.10;;
6667;SDS011;3370;47.712;9.082;2023-08-06T06:29:08;3.70;;;1.43;;
6667;SDS011;3370;47.712;9.082;2023-08-06T06:31:34;2.97;;;1.20;;
6667;SDS011;3370;47.712;9.082;2023-08-06T06:33:59;1.77;;;1.40;;
6667;SDS011;3370;47.712;9.082;2023-08-06T06:36:26;3.90;;;1.17;;
6667;SDS011;3370;47.712;9.082;2023-08-06T06:38:51;3.43;;;1.47;;
6667;SDS011;3370;47.712;9.082;2023-08-06T06:41:17;10.37;;;1.37;;
6667;SDS011;3370;47.712;9.082;2023-08-06T06:43:44;2.47;;;1.13;;
6667;SDS011;3370;47.712;9.082;2023-08-06T06:46:10;1.90;;;1.37;;
6667;SDS011;3370;47.712;9.082;2023-08-06T06:48:36;1.90;;;1.30;;
6667;SDS011;3370;47.712;9.082;2023-08-06T06:51:01;2.23;;;1.10;;
6667;SDS011;3370;47.712;9.082;2023-08-06T06:53:28;2.67;;;1.20;;
6667;SDS011;3370;47.712;9.082;2023-08-06T06:55:54;3.23;;;1.50;;
6667;SDS011;3370;47.712;9.082;2023-08-06T06:58:20;3.43;;;1.60;;
6667;SDS011;3370;47.712;9.082;2023-08-06T07:00:47;5.10;;;1.37;;
6667;SDS011;3370;47.712;9.082;2023-08-06T07:03:14;10.93;;;1.40;;
6667;SDS011;3370;47.712;9.082;2023-08-06T07:05:40;2.10;;;1.20;;
6667;SDS011;3370;47.712;9.082;2023-08-06T07:08:08;1.20;;;1.10;;
6667;SDS011;3370;47.712;9.082;2023-08-06T07:10:33;4.53;;;1.27;;
6667;SDS011;3370;47.712;9.082;2023-08-06T07:12:59;2.30;;;1.70;;
6667;SDS011;3370;47.712;9.082;2023-08-06T07:15:25;3.53;;;1.20;;
6667;SDS011;3370;47.712;9.082;2023-08-06T07:17:51;2.50;;;1.17;;
6667;SDS011;3370;47.712;9.082;2023-08-06T07:20:17;1.23;;;0.80;;
6667;SDS011;3370;47.712;9.082;2023-08-06T07:22:43;2.80;;;1.10;;
6667;SDS011;3370;47.712;9.082;2023-08-06T07:25:10;2.57;;;1.27;;
6667;SDS011;3370;47.712;9.082;2023-08-06T07:27:36;3.33;;;1.40;;
6667;SDS011;3370;47.712;9.082;2023-08-06T07:30:01;1.80;;;0.97;;
6667;SDS011;3370;47.712;9.082;2023-08-06T07:32:28;2.93;;;1.17;;
6667;SDS011;3370;47.712;9.082;2023-08-06T07:34:53;2.90;;;1.20;;
6667;SDS011;3370;47.712;9.082;2023-08-06T07:37:24;3.60;;;1.30;;
6667;SDS011;3370;47.712;9.082;2023-08-06T07:39:50;2.03;;;1.20;;
6667;SDS011;3370;47.712;9.082;2023-08-06T07:42:16;1.30;;;1.00;;
6667;SDS011;3370;47.712;9.082;2023-08-06T07:44:41;3.97;;;1.40;;
6667;SDS011;3370;47.712;9.082;2023-08-06T07:47:07;2.50;;;1.00;;
6667;SDS011;3370;47.712;9.082;2023-08-06T07:49:33;1.33;;;0.90;;
6667;SDS011;3370;47.712;9.082;2023-08-06T07:51:59;1.53;;;0.80;;
6667;SDS011;3370;47.712;9.082;2023-08-06T07:54:25;6.17;;;1.07;;
6667;SDS011;3370;47.712;9.082;2023-08-06T07:56:50;0.77;;;0.70;;
6667;SDS011;3370;47.712;9.082;2023-08-06T07:59:16;0.63;;;0.63;;
6667;SDS011;3370;47.712;9.082;2023-08-06T08:01:42;1.23;;;0.90;;
6667;SDS011;3370;47.712;9.082;2023-08-06T08:04:08;0.60;;;0.60;;
6667;SDS011;3370;47.712;9.082;2023-08-06T08:06:33;1.90;;;0.70;;
6667;SDS011;3370;47.712;9.082;2023-08-06T08:08:59;1.00;;;0.90;;
6667;SDS011;3370;47.712;9.082;2023-08-06T08:11:25;2.00;;;0.60;;
6667;SDS011;3370;47.712;9.082;2023-08-06T08:13:51;2.40;;;0.90;;
6667;SDS011;3370;47.712;9.082;2023-08-06T08:16:17;0.77;;;0.70;;
6667;SDS011;3370;47.712;9.082;2023-08-06T08:18:43;0.70;;;0.70;;
6667;SDS011;3370;47.712;9.082;2023-08-06T08:21:08;0.77;;;0.70;;
6667;SDS011;3370;47.712;9.082;2023-08-06T08:23:34;1.33;;;1.00;;
6667;SDS011;3370;47.712;9.082;2023-08-06T08:26:00;0.73;;;0.73;;
6667;SDS011;3370;47.712;9.082;2023-08-06T08:28:27;0.80;;;0.80;;
6667;SDS011;3370;47.712;9.082;2023-08-06T08:30:53;0.80;;;0.80;;
6667;SDS011;3370;47.712;9.082;2023-08-06T08:33:18;2.20;;;1.00;;
6667;SDS011;3370;47.712;9.082;2023-08-06T08:35:45;1.33;;;0.93;;
6667;SDS011;3370;47.712;9.082;2023-08-06T08:38:12;1.27;;;0.70;;
6667;SDS011;3370;47.712;9.082;2023-08-06T08:40:39;0.70;;;0.70;;
6667;SDS011;3370;47.712;9.082;2023-08-06T08:43:12;0.70;;;0.70;;
6667;SDS011;3370;47.712;9.082;2023-08-06T08:45:39;1.13;;;0.80;;
6667;SDS011;3370;47.712;9.082;2023-08-06T08:48:07;2.27;;;1.00;;
6667;SDS011;3370;47.712;9.082;2023-08-06T08:50:37;0.90;;;0.90;;
6667;SDS011;3370;47.712;9.082;2023-08-06T08:53:03;1.03;;;0.80;;
6667;SDS011;3370;47.712;9.082;2023-08-06T08:55:30;1.57;;;1.00;;
6667;SDS011;3370;47.712;9.082;2023-08-06T08:57:56;0.90;;;0.77;;
6667;SDS011;3370;47.712;9.082;2023-08-06T09:00:22;0.70;;;0.70;;
6667;SDS011;3370;47.712;9.082;2023-08-06T09:02:49;1.90;;;0.80;;
6667;SDS011;3370;47.712;9.082;2023-08-06T09:05:15;2.93;;;0.90;;
6667;SDS011;3370;47.712;9.082;2023-08-06T09:07:43;1.00;;;0.83;;
6667;SDS011;3370;47.712;9.082;2023-08-06T09:10:14;0.70;;;0.70;;
6667;SDS011;3370;47.712;9.082;2023-08-06T09:12:46;1.50;;;0.70;;
6667;SDS011;3370;47.712;9.082;2023-08-06T09:15:15;0.87;;;0.70;;
6667;SDS011;3370;47.712;9.082;2023-08-06T09:17:41;0.70;;;0.70;;
6667;SDS011;3370;47.712;9.082;2023-08-06T09:20:13;0.70;;;0.70;;
6667;SDS011;3370;47.712;9.082;2023-08-06T09:22:40;0.93;;;0.93;;
6667;SDS011;3370;47.712;9.082;2023-08-06T09:25:06;0.80;;;0.80;;
6667;SDS011;3370;47.712;9.082;2023-08-06T09:27:37;2.00;;;0.80;;
6667;SDS011;3370;47.712;9.082;2023-08-06T09:30:03;0.70;;;0.70;;
6667;SDS011;3370;47.712;9.082;2023-08-06T09:32:45;0.70;;;0.70;;
6667;SDS011;3370;47.712;9.082;2023-08-06T09:35:21;0.60;;;0.60;;
6667;SDS011;3370;47.712;9.082;2023-08-06T09:37:46;1.37;;;0.80;;
6667;SDS011;3370;47.712;9.082;2023-08-06T09:40:25;1.93;;;0.80;;
6667;SDS011;3370;47.712;9.082;2023-08-06T09:42:51;0.80;;;0.80;;
6667;SDS011;3370;47.712;9.082;2023-08-06T09:45:18;1.43;;;0.80;;
6667;SDS011;3370;47.712;9.082;2023-08-06T09:47:44;0.70;;;0.70;;
6667;SDS011;3370;47.712;9.082;2023-08-06T09:50:19;0.50;;;0.50;;
6667;SDS011;3370;47.712;9.082;2023-08-06T09:52:48;1.27;;;0.70;;
6667;SDS011;3370;47.712;9.082;2023-08-06T09:55:17;2.30;;;0.80;;
6667;SDS011;3370;47.712;9.082;2023-08-06T09:57:43;0.63;;;0.60;;
6667;SDS011;3370;47.712;9.082;2023-08-06T10:00:09;0.50;;;0.50;;
6667;SDS011;3370;47.712;9.082;2023-08-06T10:02:40;0.83;;;0.80;;
6667;SDS011;3370;47.712;9.082;2023-08-06T10:05:06;0.60;;;0.60;;
6667;SDS011;3370;47.712;9.082;2023-08-06T10:07:33;1.03;;;0.70;;
6667;SDS011;3370;47.712;9.082;2023-08-06T10:09:59;0.60;;;0.60;;
6667;SDS011;3370;47.712;9.082;2023-08-06T10:12:27;0.57;;;0.57;;
6667;SDS011;3370;47.712;9.082;2023-08-06T10:14:58;0.80;;;0.80;;
6667;SDS011;3370;47.712;9.082;2023-08-06T10:17:28;0.80;;;0.63;;
6667;SDS011;3370;47.712;9.082;2023-08-06T10:19:56;1.03;;;0.60;;
6667;SDS011;3370;47.712;9.082;2023-08-06T10:22:23;1.17;;;0.80;;
6667;SDS011;3370;47.712;9.082;2023-08-06T10:24:53;0.60;;;0.60;;
6667;SDS011;3370;47.712;9.082;2023-08-06T10:29:48;0.93;;;0.70;;
6667;SDS011;3370;47.712;9.082;2023-08-06T10:32:16;0.60;;;0.60;;
6667;SDS011;3370;47.712;9.082;2023-08-06T10:34:56;0.80;;;0.80;;
6667;SDS011;3370;47.712;9.082;2023-08-06T10:37:24;0.60;;;0.60;;
6667;SDS011;3370;47.712;9.082;2023-08-06T10:40:02;0.63;;;0.63;;
6667;SDS011;3370;47.712;9.082;2023-08-06T10:42:31;0.60;;;0.60;;
6667;SDS011;3370;47.712;9.082;2023-08-06T10:47:43;0.70;;;0.70;;
6667;SDS011;3370;47.712;9.082;2023-08-06T10:50:16;0.60;;;0.60;;
6667;SDS011;3370;47.712;9.082;2023-08-06T10:52:46;0.83;;;0.60;;
6667;SDS011;3370;47.712;9.082;2023-08-06T10:55:22;0.60;;;0.60;;
6667;SDS011;3370;47.712;9.082;2023-08-06T10:57:53;0.50;;;0.50;;
6667;SDS011;3370;47.712;9.082;2023-08-06T11:00:20;0.50;;;0.50;;
6667;SDS011;3370;47.712;9.082;2023-08-06T11:02:50;0.80;;;0.80;;
6667;SDS011;3370;47.712;9.082;2023-08-06T11:05:18;0.60;;;0.60;;
6667;SDS011;3370;47.712;9.082;2023-08-06T11:07:44;0.50;;;0.50;;
6667;SDS011;3370;47.712;9.082;2023-08-06T11:10:11;0.80;;;0.80;;
6667;SDS011;3370;47.712;9.082;2023-08-06T11:12:38;1.67;;;0.70;;
6667;SDS011;3370;47.712;9.082;2023-08-06T11:15:05;0.57;;;0.57;;
6667;SDS011;3370;47.712;9.082;2023-08-06T11:17:32;0.63;;;0.63;;
6667;SDS011;3370;47.712;9.082;2023-08-06T11:20:00;0.50;;;0.50;;
6667;SDS011;3370;47.712;9.082;2023-08-06T11:22:28;2.40;;;0.63;;
6667;SDS011;3370;47.712;9.082;2023-08-06T11:24:54;0.60;;;0.60;;
6667;SDS011;3370;47.712;9.082;2023-08-06T11:27:20;0.50;;;0.50;;
6667;SDS011;3370;47.712;9.082;2023-08-06T11:29:46;1.90;;;0.70;;
6667;SDS011;3370;47.712;9.082;2023-08-06T11:32:12;3.23;;;0.60;;
6667;SDS011;3370;47.712;9.082;2023-08-06T11:34:38;1.50;;;0.90;;
6667;SDS011;3370;47.712;9.082;2023-08-06T11:37:06;0.60;;;0.60;;
6667;SDS011;3370;47.712;9.082;2023-08-06T11:39:32;0.60;;;0.60;;
6667;SDS011;3370;47.712;9.082;2023-08-06T11:42:00;0.67;;;0.67;;
6667;SDS011;3370;47.712;9.082;2023-08-06T11:44:32;0.70;;;0.70;;
6667;SDS011;3370;47.712;9.082;2023-08-06T11:47:04;1.03;;;0.60;;
6667;SDS011;3370;47.712;9.082;2023-08-06T11:49:40;1.80;;;0.50;;
6667;SDS011;3370;47.712;9.082;2023-08-06T11:52:20;0.50;;;0.50;;
6667;SDS011;3370;47.712;9.082;2023-08-06T11:55:04;1.37;;;0.80;;
6667;SDS011;3370;47.712;9.082;2023-08-06T11:57:33;0.50;;;0.50;;
6667;SDS011;3370;47.712;9.082;2023-08-06T12:00:04;1.43;;;0.70;;
6667;SDS011;3370;47.712;9.082;2023-08-06T12:02:34;1.10;;;0.60;;
6667;SDS011;3370;47.712;9.082;2023-08-06T12:07:49;0.80;;;0.50;;
6667;SDS011;3370;47.712;9.082;2023-08-06T12:10:17;0.63;;;0.63;;
6667;SDS011;3370;47.712;9.082;2023-08-06T12:12:46;1.27;;;0.50;;
6667;SDS011;3370;47.712;9.082;2023-08-06T12:15:12;1.73;;;0.60;;
6667;SDS011;3370;47.712;9.082;2023-08-06T12:17:39;0.50;;;0.50;;
6667;SDS011;3370;47.712;9.082;2023-08-06T12:20:05;0.63;;;0.63;;
6667;SDS011;3370;47.712;9.082;2023-08-06T12:22:32;0.93;;;0.60;;
6667;SDS011;3370;47.712;9.082;2023-08-06T12:25:03;0.60;;;0.50;;
6667;SDS011;3370;47.712;9.082;2023-08-06T12:27:33;0.70;;;0.70;;
6667;SDS011;3370;47.712;9.082;2023-08-06T12:30:00;0.80;;;0.80;;
6667;SDS011;3370;47.712;9.082;2023-08-06T12:32:26;0.70;;;0.70;;
6667;SDS011;3370;47.712;9.082;2023-08-06T12:34:52;0.70;;;0.70;;
6667;SDS011;3370;47.712;9.082;2023-08-06T12:37:17;1.40;;;0.53;;
6667;SDS011;3370;47.712;9.082;2023-08-06T12:39:43;0.63;;;0.63;;
6667;SDS011;3370;47.712;9.082;2023-08-06T12:42:09;0.67;;;0.67;;
6667;SDS011;3370;47.712;9.082;2023-08-06T12:44:35;0.60;;;0.60;;
6667;SDS011;3370;47.712;9.082;2023-08-06T12:47:01;1.23;;;0.50;;
6667;SDS011;3370;47.712;9.082;2023-08-06T12:49:27;1.03;;;0.60;;
6667;SDS011;3370;47.712;9.082;2023-08-06T12:51:54;1.13;;;1.07;;
6667;SDS011;3370;47.712;9.082;2023-08-06T12:54:22;0.70;;;0.70;;
6667;SDS011;3370;47.712;9.082;2023-08-06T12:56:48;1.27;;;0.77;;
6667;SDS011;3370;47.712;9.082;2023-08-06T12:59:14;0.90;;;0.90;;
6667;SDS011;3370;47.712;9.082;2023-08-06T13:01:41;1.80;;;0.90;;
6667;SDS011;3370;47.712;9.082;2023-08-06T13:04:08;0.70;;;0.70;;
6667;SDS011;3370;47.712;9.082;2023-08-06T13:06:34;0.90;;;0.80;;
6667;SDS011;3370;47.712;9.082;2023-08-06T13:09:08;0.70;;;0.70;;
6667;SDS011;3370;47.712;9.082;2023-08-06T13:11:35;0.70;;;0.70;;
6667;SDS011;3370;47.712;9.082;2023-08-06T13:14:12;0.80;;;0.80;;
6667;SDS011;3370;47.712;9.082;2023-08-06T13:16:40;5.30;;;1.13;;
6667;SDS011;3370;47.712;9.082;2023-08-06T13:19:07;0.53;;;0.50;;
6667;SDS011;3370;47.712;9.082;2023-08-06T13:22:19;2.17;;;0.90;;
6667;SDS011;3370;47.712;9.082;2023-08-06T13:24:30;0.80;;;0.80;;
6667;SDS011;3370;47.712;9.082;2023-08-06T13:26:56;0.70;;;0.70;;
6667;SDS011;3370;47.712;9.082;2023-08-06T13:29:22;0.93;;;0.93;;
6667;SDS011;3370;47.712;9.082;2023-08-06T13:31:48;0.90;;;0.90;;
6667;SDS011;3370;47.712;9.082;2023-08-06T13:34:14;0.90;;;0.90;;
6667;SDS011;3370;47.712;9.082;2023-08-06T13:36:41;1.13;;;0.80;;
6667;SDS011;3370;47.712;9.082;2023-08-06T13:39:07;1.10;;;1.00;;
6667;SDS011;3370;47.712;9.082;2023-08-06T13:41:33;1.20;;;1.00;;
6667;SDS011;3370;47.712;9.082;2023-08-06T13:43:59;1.37;;;0.90;;
6667;SDS011;3370;47.712;9.082;2023-08-06T13:46:24;0.90;;;0.90;;
6667;SDS011;3370;47.712;9.082;2023-08-06T13:48:50;1.20;;;1.10;;
6667;SDS011;3370;47.712;9.082;2023-08-06T13:51:16;1.33;;;1.20;;
6667;SDS011;3370;47.712;9.082;2023-08-06T13:53:42;6.80;;;1.17;;
6667;SDS011;3370;47.712;9.082;2023-08-06T13:56:09;0.80;;;0.80;;
6667;SDS011;3370;47.712;9.082;2023-08-06T13:58:36;1.20;;;0.93;;
6667;SDS011;3370;47.712;9.082;2023-08-06T14:01:02;1.93;;;1.10;;
6667;SDS011;3370;47.712;9.082;2023-08-06T14:03:28;4.50;;;1.20;;
6667;SDS011;3370;47.712;9.082;2023-08-06T14:05:54;1.17;;;1.10;;
6667;SDS011;3370;47.712;9.082;2023-08-06T14:08:23;1.80;;;1.10;;
6667;SDS011;3370;47.712;9.082;2023-08-06T14:10:50;1.00;;;0.83;;
6667;SDS011;3370;47.712;9.082;2023-08-06T14:13:19;1.30;;;1.30;;
6667;SDS011;3370;47.712;9.082;2023-08-06T14:15:46;2.10;;;1.20;;
6667;SDS011;3370;47.712;9.082;2023-08-06T14:18:13;1.10;;;1.10;;
6667;SDS011;3370;47.712;9.082;2023-08-06T14:20:39;0.90;;;0.90;;
6667;SDS011;3370;47.712;9.082;2023-08-06T14:23:06;1.53;;;1.13;;
6667;SDS011;3370;47.712;9.082;2023-08-06T14:25:32;1.10;;;1.00;;
6667;SDS011;3370;47.712;9.082;2023-08-06T14:27:58;2.20;;;1.10;;
6667;SDS011;3370;47.712;9.082;2023-08-06T14:30:24;1.63;;;1.53;;
6667;SDS011;3370;47.712;9.082;2023-08-06T14:32:50;1.70;;;1.60;;
6667;SDS011;3370;47.712;9.082;2023-08-06T14:35:15;1.87;;;1.10;;
6667;SDS011;3370;47.712;9.082;2023-08-06T14:37:41;1.83;;;1.10;;
6667;SDS011;3370;47.712;9.082;2023-08-06T14:40:07;1.10;;;1.10;;
6667;SDS011;3370;47.712;9.082;2023-08-06T14:42:34;2.93;;;1.37;;
6667;SDS011;3370;47.712;9.082;2023-08-06T14:44:59;1.10;;;1.10;;
6667;SDS011;3370;47.712;9.082;2023-08-06T14:47:25;1.33;;;1.23;;
6667;SDS011;3370;47.712;9.082;2023-08-06T14:49:51;1.20;;;1.20;;
6667;SDS011;3370;47.712;9.082;2023-08-06T14:52:17;2.30;;;1.20;;
6667;SDS011;3370;47.712;9.082;2023-08-06T14:54:42;3.10;;;1.17;;
6667;SDS011;3370;47.712;9.082;2023-08-06T14:57:11;1.23;;;1.17;;
6667;SDS011;3370;47.712;9.082;2023-08-06T14:59:38;1.37;;;1.03;;
6667;SDS011;3370;47.712;9.082;2023-08-06T15:02:05;1.93;;;1.30;;
6667;SDS011;3370;47.712;9.082;2023-08-06T15:04:31;1.33;;;1.20;;
6667;SDS011;3370;47.712;9.082;2023-08-06T15:06:57;1.30;;;1.20;;
6667;SDS011;3370;47.712;9.082;2023-08-06T15:09:23;3.37;;;1.40;;
6667;SDS011;3370;47.712;9.082;2023-08-06T15:11:49;1.43;;;1.10;;
6667;SDS011;3370;47.712;9.082;2023-08-06T15:14:15;0.90;;;0.90;;
6667;SDS011;3370;47.712;9.082;2023-08-06T15:16:41;1.30;;;1.30;;
6667;SDS011;3370;47.712;9.082;2023-08-06T15:19:07;5.57;;;1.37;;
6667;SDS011;3370;47.712;9.082;2023-08-06T15:21:32;0.93;;;0.93;;
6667;SDS011;3370;47.712;9.082;2023-08-06T15:23:58;1.07;;;1.00;;
6667;SDS011;3370;47.712;9.082;2023-08-06T15:26:25;1.20;;;1.10;;
6667;SDS011;3370;47.712;9.082;2023-08-06T15:28:52;2.57;;;1.40;;
6667;SDS011;3370;47.712;9.082;2023-08-06T15:31:21;2.53;;;1.87;;